Time;durP1;ratioP1;P1;durP2;ratioP2;P2;SDS_P1;SDS_P2;PMS_P1;PMS_P2;Temp;Humidity;BMP_temperature;BMP_pressure;BME280_temperature;BME280_humidity;BME280_pressure;Samples;Min_cycle;Max_cycle;Signal;HPM_P1;HPM_P2
2023/04/16 00:01:56;;;;;;;3.47;2.93;;;;;;;;;;4988457;28;20176;-77
2023/04/16 00:04:21;;;;;;;7.30;3.50;;;;;;;;;;4989483;28;20187;-77
2023/04/16 00:06:46;;;;;;;7.00;3.90;;;;;;;;;;4979192;28;20176;-77
2023/04/16 00:09:11;;;;;;;7.67;3.47;;;;;;;;;;4981304;28;20188;-77
2023/04/16 00:11:36;;;;;;;7.17;3.30;;;;;;;;;;4989340;28;20222;-77
2023/04/16 00:14:02;;;;;;;8.90;4.23;;;;;;;;;;4986832;28;20195;-77
2023/04/16 00:16:27;;;;;;;5.00;3.20;;;;;;;;;;4988311;28;20181;-77
2023/04/16 00:18:52;;;;;;;5.30;3.40;;;;;;;;;;4991257;28;20172;-76
2023/04/16 00:21:17;;;;;;;7.03;3.40;;;;;;;;;;4986528;28;20290;-75
2023/04/16 00:23:42;;;;;;;7.30;4.03;;;;;;;;;;4981661;28;20210;-77
2023/04/16 00:26:08;;;;;;;5.77;3.73;;;;;;;;;;4985374;28;20188;-77
2023/04/16 00:28:33;;;;;;;8.97;4.43;;;;;;;;;;4981241;28;20290;-77
2023/04/16 00:30:59;;;;;;;8.27;4.00;;;;;;;;;;4987275;28;20666;-77
2023/04/16 00:33:25;;;;;;;7.67;4.67;;;;;;;;;;4993493;28;20172;-77
2023/04/16 00:35:50;;;;;;;5.07;3.13;;;;;;;;;;4984379;28;20903;-76
2023/04/16 00:38:15;;;;;;;11.13;3.17;;;;;;;;;;4986262;28;20180;-76
2023/04/16 00:40:40;;;;;;;5.40;3.00;;;;;;;;;;4984559;28;20764;-76
2023/04/16 00:43:05;;;;;;;6.13;3.13;;;;;;;;;;4983266;28;20176;-76
2023/04/16 00:45:31;;;;;;;7.17;2.50;;;;;;;;;;4986002;28;20168;-76
2023/04/16 00:47:57;;;;;;;3.80;2.77;;;;;;;;;;4993478;28;20183;-76
2023/04/16 00:50:22;;;;;;;4.77;3.30;;;;;;;;;;4997729;28;20250;-76
2023/04/16 00:52:48;;;;;;;6.90;2.73;;;;;;;;;;4987298;28;20681;-77
2023/04/16 00:55:14;;;;;;;5.87;2.70;;;;;;;;;;4991980;28;20176;-76
2023/04/16 00:57:39;;;;;;;5.43;2.57;;;;;;;;;;4993213;28;20768;-76
2023/04/16 01:00:05;;;;;;;6.93;2.60;;;;;;;;;;4992379;28;20212;-76
2023/04/16 01:02:30;;;;;;;7.87;3.87;;;;;;;;;;4987883;28;20183;-76
2023/04/16 01:04:55;;;;;;;3.90;2.43;;;;;;;;;;4993786;28;20179;-76
2023/04/16 01:07:20;;;;;;;3.70;2.40;;;;;;;;;;4991742;28;20183;-77
2023/04/16 01:09:46;;;;;;;7.93;2.80;;;;;;;;;;4986614;28;20204;-76
2023/04/16 01:12:11;;;;;;;4.97;2.90;;;;;;;;;;4992017;28;20211;-76
2023/04/16 01:14:36;;;;;;;6.97;3.00;;;;;;;;;;4990851;28;20271;-76
2023/04/16 01:17:02;;;;;;;5.27;3.00;;;;;;;;;;4991072;28;20168;-76
2023/04/16 01:19:30;;;;;;;4.70;2.97;;;;;;;;;;4993881;28;20548;-76
2023/04/16 01:21:55;;;;;;;4.83;3.10;;;;;;;;;;4993429;28;20645;-76
2023/04/16 01:24:20;;;;;;;3.80;2.63;;;;;;;;;;4992728;28;20194;-76
2023/04/16 01:26:45;;;;;;;3.50;2.70;;;;;;;;;;4992555;28;20176;-76
2023/04/16 01:29:10;;;;;;;8.87;3.03;;;;;;;;;;4993059;28;20175;-76
2023/04/16 01:31:36;;;;;;;7.10;3.27;;;;;;;;;;4991024;28;20207;-76
2023/04/16 01:34:01;;;;;;;7.87;4.23;;;;;;;;;;4993313;28;20191;-76
2023/04/16 01:36:26;;;;;;;6.23;3.50;;;;;;;;;;4993056;28;20203;-77
2023/04/16 01:38:51;;;;;;;6.00;3.60;;;;;;;;;;4992494;28;20203;-77
2023/04/16 01:41:16;;;;;;;6.33;3.40;;;;;;;;;;4992402;28;20199;-77
2023/04/16 01:43:41;;;;;;;6.53;3.83;;;;;;;;;;4999902;28;20205;-77
2023/04/16 01:46:12;;;;;;;6.87;3.67;;;;;;;;;;4981116;28;20183;-77
2023/04/16 01:48:38;;;;;;;5.40;3.47;;;;;;;;;;4991770;28;20244;-76
2023/04/16 01:51:03;;;;;;;6.97;4.67;;;;;;;;;;4993755;28;20203;-77
2023/04/16 01:53:29;;;;;;;7.53;4.60;;;;;;;;;;4990129;28;20544;-77
2023/04/16 01:55:54;;;;;;;6.53;3.73;;;;;;;;;;4991056;28;20702;-77
2023/04/16 01:58:19;;;;;;;5.43;4.00;;;;;;;;;;4992237;28;20223;-77
2023/04/16 02:00:44;;;;;;;7.13;4.00;;;;;;;;;;4987156;28;20681;-77
2023/04/16 02:03:09;;;;;;;11.97;5.27;;;;;;;;;;4984521;28;20263;-77
2023/04/16 02:05:35;;;;;;;8.43;4.30;;;;;;;;;;4978393;28;20182;-75
2023/04/16 02:08:00;;;;;;;7.87;4.10;;;;;;;;;;4988165;28;20182;-76
2023/04/16 02:10:25;;;;;;;9.07;3.63;;;;;;;;;;4980528;28;20215;-76
2023/04/16 02:12:50;;;;;;;8.37;4.30;;;;;;;;;;4980200;28;20682;-76
2023/04/16 02:15:16;;;;;;;7.57;4.27;;;;;;;;;;4983990;28;20601;-76
2023/04/16 02:17:41;;;;;;;6.23;4.03;;;;;;;;;;4977814;28;20235;-75
2023/04/16 02:20:08;;;;;;;7.50;3.87;;;;;;;;;;4989409;28;20209;-76
2023/04/16 02:22:33;;;;;;;8.70;4.33;;;;;;;;;;4977114;28;20548;-75
2023/04/16 02:24:58;;;;;;;4.33;3.60;;;;;;;;;;4983092;28;20268;-75
2023/04/16 02:27:23;;;;;;;5.37;3.73;;;;;;;;;;4979040;28;20262;-75
2023/04/16 02:29:49;;;;;;;5.87;3.50;;;;;;;;;;4989307;28;20211;-76
2023/04/16 02:32:14;;;;;;;5.43;4.20;;;;;;;;;;4994205;28;20187;-75
2023/04/16 02:34:40;;;;;;;3.87;3.40;;;;;;;;;;4996101;28;20186;-76
2023/04/16 02:37:05;;;;;;;7.57;3.50;;;;;;;;;;4992942;28;20191;-76
2023/04/16 02:39:31;;;;;;;7.90;4.23;;;;;;;;;;4995671;28;20637;-76
2023/04/16 02:41:56;;;;;;;7.33;3.73;;;;;;;;;;4996093;28;20222;-76
2023/04/16 02:44:21;;;;;;;6.83;4.20;;;;;;;;;;4994764;28;20188;-76
2023/04/16 02:46:47;;;;;;;8.63;4.70;;;;;;;;;;4994154;28;20179;-76
2023/04/16 02:49:12;;;;;;;7.23;4.00;;;;;;;;;;4993605;28;20175;-76
2023/04/16 02:51:37;;;;;;;6.20;3.90;;;;;;;;;;4991630;28;20705;-76
2023/04/16 02:54:02;;;;;;;7.97;4.80;;;;;;;;;;4994631;28;20211;-76
2023/04/16 02:56:28;;;;;;;6.27;3.30;;;;;;;;;;4994230;28;20175;-76
2023/04/16 02:58:53;;;;;;;13.33;5.00;;;;;;;;;;4993820;28;20673;-76
2023/04/16 03:01:18;;;;;;;7.83;3.77;;;;;;;;;;4989102;28;20678;-76
2023/04/16 03:03:43;;;;;;;7.03;5.70;;;;;;;;;;4983605;28;20200;-76
2023/04/16 03:06:08;;;;;;;11.37;4.73;;;;;;;;;;4990414;28;20684;-76
2023/04/16 03:08:34;;;;;;;7.43;4.47;;;;;;;;;;4984042;28;20183;-76
2023/04/16 03:11:00;;;;;;;5.97;4.47;;;;;;;;;;5000572;23;20267;-67
2023/04/16 03:13:25;;;;;;;9.63;4.87;;;;;;;;;;5007763;28;20690;-67
2023/04/16 03:15:50;;;;;;;8.97;4.27;;;;;;;;;;4992529;28;20183;-65
2023/04/16 03:18:16;;;;;;;15.47;4.70;;;;;;;;;;4993583;28;20653;-66
2023/04/16 03:20:41;;;;;;;10.80;5.03;;;;;;;;;;4992272;28;20242;-66
2023/04/16 03:23:06;;;;;;;11.20;5.30;;;;;;;;;;4993600;28;20180;-66
2023/04/16 03:25:31;;;;;;;9.43;4.70;;;;;;;;;;4992739;28;20603;-66
2023/04/16 03:27:56;;;;;;;7.03;4.67;;;;;;;;;;4990632;28;20726;-66
2023/04/16 03:30:22;;;;;;;7.23;4.80;;;;;;;;;;4992896;28;20215;-65
2023/04/16 03:32:47;;;;;;;14.60;5.17;;;;;;;;;;4992873;28;20247;-66
2023/04/16 03:35:12;;;;;;;9.27;4.67;;;;;;;;;;4993780;28;20546;-66
2023/04/16 03:37:37;;;;;;;10.93;5.03;;;;;;;;;;4992366;28;20654;-66
2023/04/16 03:40:04;;;;;;;8.80;4.87;;;;;;;;;;4992876;28;20242;-66
2023/04/16 03:42:29;;;;;;;11.37;5.90;;;;;;;;;;4991680;28;20184;-66
2023/04/16 03:44:55;;;;;;;11.83;5.73;;;;;;;;;;5006832;28;20184;-65
2023/04/16 03:47:20;;;;;;;9.70;5.30;;;;;;;;;;4991767;28;20195;-66
2023/04/16 03:49:45;;;;;;;9.57;5.87;;;;;;;;;;4991744;28;20183;-66
2023/04/16 03:52:10;;;;;;;10.90;6.43;;;;;;;;;;4992602;28;20298;-66
2023/04/16 03:54:36;;;;;;;16.57;5.40;;;;;;;;;;4992938;28;20603;-66
2023/04/16 03:57:01;;;;;;;17.03;6.20;;;;;;;;;;4991002;28;20196;-66
2023/04/16 03:59:26;;;;;;;9.33;5.57;;;;;;;;;;4990674;28;20180;-66
2023/04/16 04:01:51;;;;;;;11.30;5.80;;;;;;;;;;4990865;28;20203;-66
2023/04/16 04:04:16;;;;;;;12.83;6.10;;;;;;;;;;4992485;28;20645;-66
2023/04/16 04:06:43;;;;;;;9.87;5.97;;;;;;;;;;4985195;28;20180;-67
2023/04/16 04:09:08;;;;;;;9.57;6.37;;;;;;;;;;4990722;28;20188;-67
2023/04/16 04:11:34;;;;;;;12.87;6.67;;;;;;;;;;4990365;28;20219;-67
2023/04/16 04:13:59;;;;;;;11.83;5.77;;;;;;;;;;4992859;28;20176;-66
2023/04/16 04:16:24;;;;;;;15.67;7.40;;;;;;;;;;4991892;28;20207;-66
2023/04/16 04:18:50;;;;;;;9.97;6.73;;;;;;;;;;4992107;28;20278;-66
2023/04/16 04:21:15;;;;;;;12.67;5.97;;;;;;;;;;4992473;28;20250;-66
2023/04/16 04:23:41;;;;;;;9.37;6.03;;;;;;;;;;4991450;28;20175;-66
2023/04/16 04:26:06;;;;;;;12.87;6.43;;;;;;;;;;4992354;28;20191;-66
2023/04/16 04:28:32;;;;;;;13.57;6.87;;;;;;;;;;4991711;28;20188;-66
2023/04/16 04:30:57;;;;;;;12.90;6.47;;;;;;;;;;4992054;28;20258;-65
2023/04/16 04:33:23;;;;;;;13.67;6.03;;;;;;;;;;4990992;28;20268;-65
2023/04/16 04:35:48;;;;;;;14.70;7.73;;;;;;;;;;4992286;28;20190;-65
2023/04/16 04:38:13;;;;;;;10.63;6.60;;;;;;;;;;4991239;28;20716;-66
2023/04/16 04:40:39;;;;;;;15.13;6.77;;;;;;;;;;4991124;28;20231;-66
2023/04/16 04:43:04;;;;;;;14.63;6.50;;;;;;;;;;4991592;28;20194;-66
2023/04/16 04:45:29;;;;;;;12.37;6.77;;;;;;;;;;4991815;28;20226;-66
2023/04/16 04:47:54;;;;;;;17.57;8.33;;;;;;;;;;4991710;28;20183;-65
2023/04/16 04:50:20;;;;;;;9.93;6.20;;;;;;;;;;4991247;28;20716;-65
2023/04/16 04:52:45;;;;;;;15.53;7.60;;;;;;;;;;4992137;28;20677;-65
2023/04/16 04:55:11;;;;;;;13.90;7.03;;;;;;;;;;4991042;28;20187;-66
2023/04/16 04:57:36;;;;;;;17.33;7.37;;;;;;;;;;4992152;28;20172;-65
2023/04/16 05:00:02;;;;;;;12.83;7.50;;;;;;;;;;4989903;28;20264;-66
2023/04/16 05:02:27;;;;;;;14.50;7.10;;;;;;;;;;4989606;28;20183;-65
2023/04/16 05:04:53;;;;;;;12.07;6.30;;;;;;;;;;4991847;28;20180;-65
2023/04/16 05:07:18;;;;;;;15.27;7.27;;;;;;;;;;4986221;28;20634;-66
2023/04/16 05:09:43;;;;;;;10.33;6.47;;;;;;;;;;4982928;28;20278;-66
2023/04/16 05:12:08;;;;;;;15.13;6.47;;;;;;;;;;4990769;28;20211;-66
2023/04/16 05:14:35;;;;;;;14.07;6.47;;;;;;;;;;4991101;28;20171;-66
2023/04/16 05:17:00;;;;;;;11.07;6.43;;;;;;;;;;4990696;28;20175;-66
2023/04/16 05:19:25;;;;;;;9.70;5.90;;;;;;;;;;4990197;28;20226;-66
2023/04/16 05:21:50;;;;;;;14.63;6.00;;;;;;;;;;4992020;28;20203;-66
2023/04/16 05:24:15;;;;;;;16.87;7.63;;;;;;;;;;4990246;28;20807;-66
2023/04/16 05:26:40;;;;;;;17.00;7.03;;;;;;;;;;4988023;28;20266;-66
2023/04/16 05:29:06;;;;;;;17.70;7.93;;;;;;;;;;4990260;28;20176;-66
2023/04/16 05:31:31;;;;;;;14.43;7.67;;;;;;;;;;4988937;28;20204;-66
2023/04/16 05:33:56;;;;;;;11.77;7.67;;;;;;;;;;4991178;28;20545;-65
2023/04/16 05:36:21;;;;;;;23.47;8.87;;;;;;;;;;4990758;28;20178;-66
2023/04/16 05:38:46;;;;;;;18.17;9.50;;;;;;;;;;4987687;28;20648;-66
2023/04/16 05:41:12;;;;;;;20.67;9.10;;;;;;;;;;4991781;28;20541;-66
2023/04/16 05:43:37;;;;;;;16.63;8.77;;;;;;;;;;4991807;28;20188;-66
2023/04/16 05:46:02;;;;;;;21.47;8.67;;;;;;;;;;4991926;28;20184;-66
2023/04/16 05:48:27;;;;;;;19.47;8.43;;;;;;;;;;4991698;28;20183;-66
2023/04/16 05:50:52;;;;;;;19.27;8.57;;;;;;;;;;4989162;28;20262;-65
2023/04/16 05:53:18;;;;;;;21.27;10.13;;;;;;;;;;4991614;28;20182;-66
2023/04/16 05:55:43;;;;;;;18.83;8.00;;;;;;;;;;4991426;28;20175;-66
2023/04/16 05:58:08;;;;;;;17.17;8.50;;;;;;;;;;4991835;28;20180;-66
2023/04/16 06:00:34;;;;;;;19.20;8.80;;;;;;;;;;4983772;28;20199;-65
2023/04/16 06:02:59;;;;;;;17.80;8.43;;;;;;;;;;4978509;28;20672;-65
2023/04/16 06:05:27;;;;;;;17.83;7.53;;;;;;;;;;4988670;28;20180;-65
2023/04/16 06:07:53;;;;;;;14.03;7.63;;;;;;;;;;4990427;28;20222;-65
2023/04/16 06:10:18;;;;;;;19.30;8.37;;;;;;;;;;4988525;28;20242;-65
2023/04/16 06:12:43;;;;;;;16.33;6.97;;;;;;;;;;4991091;28;20231;-65
2023/04/16 06:15:09;;;;;;;17.13;8.30;;;;;;;;;;4990039;28;20180;-65
2023/04/16 06:17:34;;;;;;;18.00;7.50;;;;;;;;;;4990612;28;20827;-65
2023/04/16 06:19:59;;;;;;;15.87;7.30;;;;;;;;;;4983618;28;20703;-67
2023/04/16 06:22:25;;;;;;;19.23;7.23;;;;;;;;;;4985728;28;20760;-66
2023/04/16 06:24:51;;;;;;;17.80;7.00;;;;;;;;;;4990518;28;20180;-66
2023/04/16 06:27:16;;;;;;;19.80;8.83;;;;;;;;;;4992437;28;20230;-66
2023/04/16 06:29:42;;;;;;;17.70;6.93;;;;;;;;;;4989496;28;20199;-66
2023/04/16 06:32:07;;;;;;;17.20;7.60;;;;;;;;;;4983949;28;20583;-66
2023/04/16 06:34:32;;;;;;;15.30;7.17;;;;;;;;;;4989396;28;20601;-66
2023/04/16 06:36:58;;;;;;;15.73;7.27;;;;;;;;;;4982940;28;20180;-66
2023/04/16 06:39:23;;;;;;;15.40;7.70;;;;;;;;;;4986050;28;20652;-66
2023/04/16 06:41:48;;;;;;;17.13;7.77;;;;;;;;;;4991633;28;20629;-66
2023/04/16 06:44:13;;;;;;;15.63;7.73;;;;;;;;;;4989714;28;20180;-66
2023/04/16 06:46:39;;;;;;;18.37;8.00;;;;;;;;;;4991141;28;20534;-66
2023/04/16 06:49:04;;;;;;;14.57;7.70;;;;;;;;;;4990952;28;20716;-66
2023/04/16 06:51:29;;;;;;;17.77;7.87;;;;;;;;;;4990876;28;20200;-66
2023/04/16 06:53:55;;;;;;;14.20;7.47;;;;;;;;;;4991325;28;20230;-66
2023/04/16 06:56:20;;;;;;;16.87;8.00;;;;;;;;;;4990808;28;20210;-66
2023/04/16 06:58:45;;;;;;;12.40;6.67;;;;;;;;;;4989383;28;20179;-66
2023/04/16 07:01:10;;;;;;;15.20;7.30;;;;;;;;;;4986141;28;20611;-66
2023/04/16 07:03:36;;;;;;;16.67;6.67;;;;;;;;;;4985187;28;20182;-66
2023/04/16 07:06:01;;;;;;;14.10;6.27;;;;;;;;;;4990097;28;20550;-65
2023/04/16 07:08:26;;;;;;;15.13;6.63;;;;;;;;;;4989221;28;20271;-66
2023/04/16 07:10:52;;;;;;;13.23;6.37;;;;;;;;;;4990365;28;20203;-66
2023/04/16 07:13:17;;;;;;;13.83;6.00;;;;;;;;;;4990993;28;20183;-65
2023/04/16 07:15:43;;;;;;;13.47;6.37;;;;;;;;;;4990469;28;20235;-65
2023/04/16 07:18:08;;;;;;;13.10;7.20;;;;;;;;;;4989072;28;20638;-66
2023/04/16 07:20:35;;;;;;;14.07;5.83;;;;;;;;;;4990104;28;20724;-66
2023/04/16 07:23:00;;;;;;;11.53;7.03;;;;;;;;;;4993020;28;20176;-66
2023/04/16 07:25:25;;;;;;;12.30;6.57;;;;;;;;;;4991231;28;20210;-66
2023/04/16 07:27:51;;;;;;;12.73;6.60;;;;;;;;;;4992666;28;20187;-66
2023/04/16 07:30:16;;;;;;;10.17;6.70;;;;;;;;;;4993563;28;20204;-66
2023/04/16 07:32:41;;;;;;;12.77;6.60;;;;;;;;;;4993595;28;20282;-66
2023/04/16 07:35:06;;;;;;;11.17;6.70;;;;;;;;;;4993511;28;20738;-66
2023/04/16 07:37:31;;;;;;;13.03;7.27;;;;;;;;;;4993712;28;20183;-66
2023/04/16 07:39:57;;;;;;;17.87;7.17;;;;;;;;;;4993021;28;20187;-66
2023/04/16 07:42:22;;;;;;;14.60;6.67;;;;;;;;;;4992324;28;20191;-66
2023/04/16 07:44:47;;;;;;;12.97;6.60;;;;;;;;;;4989518;28;20180;-66
2023/04/16 07:47:12;;;;;;;13.53;7.10;;;;;;;;;;4994023;28;20183;-65
2023/04/16 07:49:38;;;;;;;22.47;7.50;;;;;;;;;;4992780;28;20190;-65
2023/04/16 07:52:03;;;;;;;15.53;7.13;;;;;;;;;;4994001;28;20287;-66
2023/04/16 07:54:28;;;;;;;11.67;6.63;;;;;;;;;;4992980;28;20195;-66
2023/04/16 07:56:53;;;;;;;18.23;7.00;;;;;;;;;;4993223;28;20168;-66
2023/04/16 07:59:19;;;;;;;13.10;7.37;;;;;;;;;;4989484;28;20203;-66
2023/04/16 08:01:44;;;;;;;14.53;7.13;;;;;;;;;;4986845;28;20210;-66
2023/04/16 08:04:10;;;;;;;13.00;6.17;;;;;;;;;;4986563;28;20183;-65
2023/04/16 08:06:35;;;;;;;14.40;7.00;;;;;;;;;;4998846;28;20250;-66
2023/04/16 08:09:00;;;;;;;10.47;6.13;;;;;;;;;;4992147;28;20566;-66
2023/04/16 08:11:25;;;;;;;11.67;6.17;;;;;;;;;;4991065;28;20258;-66
2023/04/16 08:13:50;;;;;;;12.03;6.73;;;;;;;;;;4990452;28;20218;-65
2023/04/16 08:16:16;;;;;;;12.70;6.67;;;;;;;;;;4990858;28;20211;-66
2023/04/16 08:18:41;;;;;;;13.00;6.80;;;;;;;;;;4990544;28;20268;-66
2023/04/16 08:21:06;;;;;;;12.73;6.97;;;;;;;;;;4991019;28;20258;-67
2023/04/16 08:23:31;;;;;;;11.83;6.33;;;;;;;;;;4992721;28;20189;-66
2023/04/16 08:25:56;;;;;;;12.33;7.20;;;;;;;;;;4992787;28;20171;-65
2023/04/16 08:28:22;;;;;;;12.73;6.37;;;;;;;;;;4991927;28;20187;-66
2023/04/16 08:30:47;;;;;;;13.83;6.53;;;;;;;;;;4993002;28;20200;-66
2023/04/16 08:33:13;;;;;;;16.40;6.67;;;;;;;;;;4993051;28;20172;-66
2023/04/16 08:35:38;;;;;;;12.50;5.53;;;;;;;;;;4992559;28;20198;-66
2023/04/16 08:38:03;;;;;;;10.67;6.77;;;;;;;;;;4992867;28;20662;-66
2023/04/16 08:40:30;;;;;;;12.20;5.63;;;;;;;;;;4992022;28;20187;-66
2023/04/16 08:42:57;;;;;;;9.70;6.17;;;;;;;;;;4992446;28;20258;-66
2023/04/16 08:45:24;;;;;;;15.40;6.17;;;;;;;;;;4988455;28;20183;-66
2023/04/16 08:47:50;;;;;;;9.27;5.93;;;;;;;;;;4989942;28;20179;-66
2023/04/16 08:50:19;;;;;;;11.23;5.33;;;;;;;;;;4991923;28;20208;-66
2023/04/16 08:52:49;;;;;;;10.50;5.13;;;;;;;;;;4992172;28;20254;-66
2023/04/16 08:55:15;;;;;;;9.43;5.73;;;;;;;;;;4992230;28;20183;-66
2023/04/16 08:57:46;;;;;;;7.73;5.80;;;;;;;;;;4992375;28;20601;-66
2023/04/16 09:00:12;;;;;;;12.37;5.63;;;;;;;;;;4988956;28;20255;-66
2023/04/16 09:02:37;;;;;;;12.03;6.53;;;;;;;;;;4985698;28;21176;-66
2023/04/16 09:05:05;;;;;;;10.07;6.20;;;;;;;;;;4986577;28;20167;-66
2023/04/16 09:07:31;;;;;;;10.83;5.87;;;;;;;;;;4988647;28;20195;-66
2023/04/16 09:12:25;;;;;;;14.30;5.57;;;;;;;;;;4970957;28;20232;-78
2023/04/16 09:14:50;;;;;;;11.60;5.63;;;;;;;;;;4979381;28;20179;-78
2023/04/16 09:17:17;;;;;;;11.10;6.07;;;;;;;;;;4968964;28;20176;-78
2023/04/16 09:19:42;;;;;;;12.07;6.17;;;;;;;;;;4978329;28;20208;-78
2023/04/16 09:22:07;;;;;;;14.73;6.47;;;;;;;;;;4989271;28;20255;-77
2023/04/16 09:24:33;;;;;;;15.30;6.47;;;;;;;;;;4974128;28;20173;-77
2023/04/16 09:26:58;;;;;;;14.83;6.57;;;;;;;;;;4974484;28;20169;-78
2023/04/16 09:29:32;;;;;;;14.03;6.43;;;;;;;;;;4973022;28;20183;-78
2023/04/16 09:32:01;;;;;;;13.83;5.97;;;;;;;;;;4960751;28;20220;-77
2023/04/16 09:34:26;;;;;;;11.93;5.63;;;;;;;;;;4967208;28;20188;-77
2023/04/16 09:36:51;;;;;;;12.90;6.17;;;;;;;;;;4970471;28;20177;-77
2023/04/16 09:39:17;;;;;;;9.03;5.67;;;;;;;;;;4968208;28;20180;-77
2023/04/16 09:41:44;;;;;;;9.43;5.37;;;;;;;;;;4970649;28;20232;-79
2023/04/16 09:44:09;;;;;;;11.77;5.83;;;;;;;;;;4970965;28;20214;-75
2023/04/16 09:46:41;;;;;;;12.33;5.47;;;;;;;;;;4970272;28;20673;-76
2023/04/16 09:49:12;;;;;;;13.37;6.33;;;;;;;;;;4971234;28;20243;-78
2023/04/16 09:51:39;;;;;;;8.13;5.13;;;;;;;;;;4968127;28;20227;-76
2023/04/16 09:54:05;;;;;;;12.43;5.47;;;;;;;;;;4970116;28;20207;-77
2023/04/16 09:56:30;;;;;;;9.63;5.70;;;;;;;;;;4969149;28;20654;-77
2023/04/16 09:58:57;;;;;;;11.70;6.77;;;;;;;;;;4971641;28;20184;-76
2023/04/16 10:01:22;;;;;;;9.00;5.13;;;;;;;;;;4968323;28;20693;-76
2023/04/16 10:03:48;;;;;;;17.53;7.17;;;;;;;;;;4969038;28;20274;-77
2023/04/16 10:06:14;;;;;;;11.67;5.97;;;;;;;;;;4970290;28;20268;-76
2023/04/16 10:08:43;;;;;;;12.90;5.87;;;;;;;;;;4970084;28;20188;-77
2023/04/16 10:11:08;;;;;;;11.43;6.63;;;;;;;;;;4971023;28;20222;-77
2023/04/16 10:13:33;;;;;;;11.77;6.27;;;;;;;;;;4969517;28;20184;-77
2023/04/16 10:15:59;;;;;;;14.37;6.30;;;;;;;;;;4995219;28;20180;-76
2023/04/16 10:18:24;;;;;;;14.03;6.90;;;;;;;;;;4986795;28;20192;-76
2023/04/16 10:20:49;;;;;;;11.53;7.07;;;;;;;;;;4970768;28;20204;-76
2023/04/16 10:23:15;;;;;;;9.43;5.83;;;;;;;;;;4969475;28;20208;-76
2023/04/16 10:25:41;;;;;;;8.83;5.60;;;;;;;;;;4970927;28;20271;-77
2023/04/16 10:28:06;;;;;;;11.23;5.70;;;;;;;;;;4972969;28;20286;-76
2023/04/16 10:30:31;;;;;;;15.17;6.37;;;;;;;;;;4972764;28;20247;-76
2023/04/16 10:32:57;;;;;;;9.20;5.43;;;;;;;;;;4971489;28;20290;-76
2023/04/16 10:35:24;;;;;;;9.83;5.60;;;;;;;;;;4968901;28;20192;-76
2023/04/16 10:37:54;;;;;;;10.20;5.50;;;;;;;;;;4970332;28;20608;-76
2023/04/16 10:40:24;;;;;;;8.45;5.80;;;;;;;;;;4971654;28;20197;-76
2023/04/16 10:42:56;;;;;;;10.63;5.50;;;;;;;;;;4972793;28;20180;-76
2023/04/16 10:45:31;;;;;;;12.95;6.00;;;;;;;;;;4973004;28;20188;-76
2023/04/16 10:47:57;;;;;;;9.27;5.80;;;;;;;;;;4972029;28;20531;-76
2023/04/16 10:50:22;;;;;;;13.40;6.00;;;;;;;;;;4971074;28;20278;-76
2023/04/16 10:52:48;;;;;;;10.63;5.70;;;;;;;;;;4973098;28;20189;-76
2023/04/16 10:55:16;;;;;;;11.60;6.10;;;;;;;;;;4972759;28;20654;-76
2023/04/16 10:57:41;;;;;;;10.38;5.10;;;;;;;;;;4974107;28;20189;-76
2023/04/16 11:00:22;;;;;;;12.60;6.75;;;;;;;;;;4973229;28;20247;-76
2023/04/16 11:02:51;;;;;;;9.25;5.35;;;;;;;;;;4975415;28;20183;-76
2023/04/16 11:05:20;;;;;;;10.53;6.00;;;;;;;;;;4975942;28;20188;-76
2023/04/16 11:07:47;;;;;;;11.13;6.15;;;;;;;;;;4972300;28;20188;-76
2023/04/16 11:10:12;;;;;;;10.67;6.13;;;;;;;;;;4972505;28;20215;-76
2023/04/16 11:12:41;;;;;;;12.63;7.10;;;;;;;;;;4971540;28;20573;-76
2023/04/16 11:15:10;;;;;;;10.40;6.45;;;;;;;;;;4972895;28;20184;-77
2023/04/16 11:17:40;;;;;;;13.43;7.00;;;;;;;;;;4972980;28;20184;-76
2023/04/16 11:20:06;;;;;;;14.30;7.03;;;;;;;;;;4974450;28;20188;-77
2023/04/16 11:22:33;;;;;;;11.80;6.90;;;;;;;;;;4974341;28;20218;-77
2023/04/16 11:24:59;;;;;;;10.93;6.33;;;;;;;;;;4971563;28;20193;-77
2023/04/16 11:27:24;;;;;;;10.93;6.32;;;;;;;;;;4967911;28;20215;-77
2023/04/16 11:30:00;;;;;;;13.70;7.10;;;;;;;;;;4973800;28;20184;-77
2023/04/16 11:32:25;;;;;;;11.23;7.53;;;;;;;;;;4971491;28;20298;-77
2023/04/16 11:34:50;;;;;;;12.43;7.30;;;;;;;;;;4974312;28;20922;-76
2023/04/16 11:37:18;;;;;;;8.70;5.93;;;;;;;;;;4969502;28;20208;-76
2023/04/16 11:39:51;;;;;;;14.27;7.38;;;;;;;;;;4972252;28;20207;-76
2023/04/16 11:42:22;;;;;;;14.00;7.10;;;;;;;;;;4972634;28;20319;-76
2023/04/16 11:44:52;;;;;;;10.30;6.20;;;;;;;;;;4971102;28;20564;-77
2023/04/16 11:47:17;;;;;;;15.82;6.50;;;;;;;;;;4974020;28;20195;-77
2023/04/16 11:49:42;;;;;;;12.13;6.97;;;;;;;;;;4969541;28;20180;-77
2023/04/16 11:52:07;;;;;;;13.45;7.28;;;;;;;;;;4976121;28;20211;-77
2023/04/16 11:54:35;;;;;;;15.48;7.97;;;;;;;;;;4972576;28;20220;-77
2023/04/16 11:57:03;;;;;;;11.23;7.45;;;;;;;;;;4966242;28;20188;-77
2023/04/16 11:59:28;;;;;;;12.20;6.78;;;;;;;;;;4974897;28;20184;-77
2023/04/16 12:01:56;;;;;;;10.82;7.13;;;;;;;;;;4972769;28;20192;-78
2023/04/16 12:04:23;;;;;;;17.23;8.35;;;;;;;;;;4975627;28;20184;-78
2023/04/16 12:07:08;;;;;;;14.18;6.65;;;;;;;;;;4971990;28;20207;-78
2023/04/16 12:09:36;;;;;;;18.30;8.02;;;;;;;;;;4975930;28;20524;-77
2023/04/16 12:12:02;;;;;;;11.88;7.45;;;;;;;;;;4976714;28;20221;-77
2023/04/16 12:14:27;;;;;;;12.20;7.07;;;;;;;;;;4973529;28;20192;-78
2023/04/16 12:16:53;;;;;;;15.85;7.53;;;;;;;;;;4974076;28;20178;-77
2023/04/16 12:19:18;;;;;;;14.47;6.93;;;;;;;;;;4973610;28;20263;-78
2023/04/16 12:21:45;;;;;;;12.35;7.43;;;;;;;;;;4972858;28;20240;-78
2023/04/16 12:24:12;;;;;;;18.13;6.90;;;;;;;;;;4972781;28;20291;-78
2023/04/16 12:26:37;;;;;;;17.00;7.82;;;;;;;;;;4973702;28;20263;-78
2023/04/16 12:29:15;;;;;;;12.68;7.55;;;;;;;;;;4972664;28;20214;-78
2023/04/16 12:31:40;;;;;;;16.67;7.50;;;;;;;;;;4973257;28;20215;-77
2023/04/16 12:34:06;;;;;;;12.00;6.68;;;;;;;;;;4970514;28;20180;-78
2023/04/16 12:36:31;;;;;;;12.07;7.78;;;;;;;;;;4973781;28;20654;-77
2023/04/16 12:38:57;;;;;;;15.20;7.25;;;;;;;;;;4969931;28;20224;-78
2023/04/16 12:41:22;;;;;;;11.68;6.72;;;;;;;;;;4973229;28;20215;-78
2023/04/16 12:43:47;;;;;;;13.38;7.18;;;;;;;;;;4972105;28;20816;-77
2023/04/16 12:46:12;;;;;;;17.52;8.00;;;;;;;;;;4972248;28;20180;-77
2023/04/16 12:48:37;;;;;;;13.63;7.40;;;;;;;;;;4973457;28;20271;-77
2023/04/16 12:51:03;;;;;;;16.55;8.10;;;;;;;;;;4970352;28;20324;-77
2023/04/16 12:53:28;;;;;;;12.50;7.55;;;;;;;;;;4967214;28;20271;-77
2023/04/16 12:55:53;;;;;;;10.02;6.45;;;;;;;;;;4972372;28;20631;-77
2023/04/16 12:58:19;;;;;;;14.20;7.43;;;;;;;;;;4970561;28;20173;-77
2023/04/16 13:00:44;;;;;;;13.45;7.32;;;;;;;;;;4972303;28;20280;-78
2023/04/16 13:03:09;;;;;;;13.73;7.30;;;;;;;;;;4971889;28;20214;-78
2023/04/16 13:05:34;;;;;;;11.80;5.95;;;;;;;;;;4969056;28;20192;-77
2023/04/16 13:08:00;;;;;;;23.67;8.07;;;;;;;;;;4972333;28;20203;-78
2023/04/16 13:10:26;;;;;;;11.45;6.63;;;;;;;;;;4969541;28;20211;-78
2023/04/16 13:12:51;;;;;;;11.15;6.68;;;;;;;;;;4970814;28;20211;-78
2023/04/16 13:15:17;;;;;;;10.93;6.75;;;;;;;;;;4969610;28;20584;-77
2023/04/16 13:17:42;;;;;;;17.15;7.05;;;;;;;;;;4972975;28;20177;-77
2023/04/16 13:20:07;;;;;;;13.52;7.50;;;;;;;;;;4971183;28;20594;-77
2023/04/16 13:22:33;;;;;;;14.85;7.60;;;;;;;;;;4970923;28;20172;-77
2023/04/16 13:24:58;;;;;;;15.60;7.93;;;;;;;;;;4968038;28;20203;-77
2023/04/16 13:27:23;;;;;;;17.58;8.02;;;;;;;;;;4968478;28;20197;-76
2023/04/16 13:29:48;;;;;;;13.07;7.50;;;;;;;;;;4970777;28;20665;-77
2023/04/16 13:32:13;;;;;;;13.95;8.05;;;;;;;;;;4970245;28;20294;-77
2023/04/16 13:34:39;;;;;;;12.88;7.72;;;;;;;;;;4972333;28;20184;-77
2023/04/16 13:37:05;;;;;;;15.27;7.90;;;;;;;;;;4966394;28;20181;-78
2023/04/16 13:39:30;;;;;;;12.15;6.93;;;;;;;;;;4970362;28;20184;-77
2023/04/16 13:41:55;;;;;;;16.98;7.65;;;;;;;;;;4968414;28;20211;-78
2023/04/16 13:44:20;;;;;;;15.77;8.07;;;;;;;;;;4969463;28;20188;-77
2023/04/16 13:46:48;;;;;;;15.73;7.30;;;;;;;;;;4968022;28;20668;-77
2023/04/16 13:49:13;;;;;;;13.23;7.63;;;;;;;;;;4967261;28;20278;-76
2023/04/16 13:51:40;;;;;;;14.70;8.75;;;;;;;;;;4972308;28;20320;-77
2023/04/16 13:54:05;;;;;;;13.98;7.35;;;;;;;;;;4970690;28;20211;-77
2023/04/16 13:56:30;;;;;;;14.13;7.53;;;;;;;;;;4966120;28;20724;-77
2023/04/16 13:58:56;;;;;;;13.85;8.18;;;;;;;;;;4971271;28;20172;-77
2023/04/16 14:01:21;;;;;;;16.65;8.55;;;;;;;;;;4967605;28;20250;-77
2023/04/16 14:03:46;;;;;;;14.63;7.97;;;;;;;;;;4969155;28;20180;-76
2023/04/16 14:06:12;;;;;;;16.30;8.18;;;;;;;;;;4970519;28;20185;-76
2023/04/16 14:08:37;;;;;;;15.95;7.75;;;;;;;;;;4970547;28;20187;-76
2023/04/16 14:11:04;;;;;;;12.18;7.60;;;;;;;;;;4971437;28;20307;-76
2023/04/16 14:13:29;;;;;;;21.65;9.02;;;;;;;;;;4972465;28;20244;-76
2023/04/16 14:15:54;;;;;;;17.35;8.55;;;;;;;;;;4970494;28;20682;-77
2023/04/16 14:18:20;;;;;;;14.93;7.80;;;;;;;;;;4979178;28;20255;-76
2023/04/16 14:20:45;;;;;;;11.60;7.97;;;;;;;;;;4993892;28;20219;-77
2023/04/16 14:23:11;;;;;;;13.25;7.95;;;;;;;;;;4979031;28;20215;-78
2023/04/16 14:25:37;;;;;;;19.02;8.43;;;;;;;;;;4969727;28;20181;-77
2023/04/16 14:28:02;;;;;;;18.17;8.43;;;;;;;;;;4968258;28;20173;-76